createdAt,value
2023-08-13T00:05:16.739Z,3.28
2023-08-13T00:11:36.575Z,3.33
2023-08-13T00:18:16.460Z,3.50
2023-08-13T00:20:57.439Z,3.10
2023-08-13T00:23:52.055Z,3.63
2023-08-13T00:26:21.719Z,3.10
2023-08-13T00:35:41.494Z,3.33
2023-08-13T01:46:36.233Z,3.42
2023-08-13T02:10:24.246Z,2.95
2023-08-13T02:54:42.157Z,3.05
2023-08-13T02:57:08.961Z,3.03
2023-08-13T02:59:35.696Z,3.08
2023-08-13T03:02:02.447Z,3.35
2023-08-13T03:04:29.269Z,2.83
2023-08-13T03:46:24.598Z,3.10
2023-08-13T03:48:51.534Z,3.25
2023-08-13T03:51:18.294Z,3.20
2023-08-13T03:53:45.137Z,3.20
2023-08-13T03:56:11.770Z,3.35
2023-08-13T03:58:39.692Z,3.30
2023-08-13T04:01:07.056Z,2.90
2023-08-13T04:03:34.138Z,2.75
2023-08-13T04:06:03.739Z,3.20
2023-08-13T04:10:57.538Z,2.92
2023-08-13T04:13:24.253Z,3.13
2023-08-13T04:15:51.042Z,3.28
2023-08-13T04:30:07.385Z,2.67
2023-08-13T04:32:37.808Z,2.50
2023-08-13T04:35:05.247Z,2.63
2023-08-13T04:37:32.167Z,2.50
2023-08-13T04:39:59.297Z,3.15
2023-08-13T04:42:26.025Z,3.05
2023-08-13T04:44:52.887Z,2.70
2023-08-13T04:47:19.607Z,3.20
2023-08-13T04:49:46.450Z,3.22
2023-08-13T04:52:13.455Z,3.10
2023-08-13T04:54:41.909Z,2.72
2023-08-13T04:59:36.606Z,2.75
2023-08-13T05:02:03.196Z,2.70
2023-08-13T05:04:29.820Z,3.38
2023-08-13T05:06:56.665Z,2.88
2023-08-13T05:09:23.509Z,2.55
2023-08-13T05:59:20.507Z,2.20
2023-08-13T06:01:49.623Z,2.25
2023-08-13T06:07:24.300Z,2.58
2023-08-13T06:12:42.885Z,2.22
2023-08-13T06:24:31.294Z,2.65
2023-08-13T06:30:11.090Z,2.60
2023-08-13T06:32:38.598Z,2.67
2023-08-13T06:46:02.417Z,2.58
2023-08-13T07:20:27.561Z,2.42
2023-08-13T07:23:16.974Z,3.17
2023-08-13T07:29:21.959Z,2.72
2023-08-13T07:32:34.140Z,2.33
2023-08-13T07:44:41.918Z,2.30
2023-08-13T07:47:08.456Z,2.00
2023-08-13T07:49:35.022Z,1.98
2023-08-13T07:52:01.866Z,2.35
2023-08-13T07:54:29.735Z,2.05
2023-08-13T07:56:56.252Z,1.83
2023-08-13T07:59:22.848Z,1.98
2023-08-13T08:01:50.331Z,1.75
2023-08-13T08:04:16.880Z,1.70
2023-08-13T08:06:43.977Z,1.80
2023-08-13T08:09:11.010Z,1.50
2023-08-13T08:11:37.523Z,1.70
2023-08-13T08:14:04.225Z,1.50
2023-08-13T08:16:30.820Z,1.65
2023-08-13T08:18:57.332Z,1.70
2023-08-13T08:21:23.855Z,1.45
2023-08-13T08:23:50.401Z,1.63
2023-08-13T08:26:16.959Z,1.40
2023-08-13T08:28:43.557Z,1.43
2023-08-13T08:31:10.280Z,1.63
2023-08-13T08:33:36.958Z,1.60
2023-08-13T08:36:03.585Z,1.73
2023-08-13T08:38:30.118Z,1.60
2023-08-13T08:40:57.354Z,1.70
2023-08-13T08:43:24.759Z,1.65
2023-08-13T08:48:18.500Z,1.30
2023-08-13T08:50:45.247Z,1.60
2023-08-13T08:53:11.750Z,1.80
2023-08-13T08:55:38.234Z,1.87
2023-08-13T08:58:05.434Z,1.80
2023-08-13T09:00:32.010Z,1.75
2023-08-13T09:02:58.763Z,1.95
2023-08-13T09:05:25.488Z,1.63
2023-08-13T09:07:52.015Z,1.90
2023-08-13T09:10:18.692Z,1.90
2023-08-13T09:12:45.388Z,1.90
2023-08-13T09:15:12.690Z,1.60
2023-08-13T09:17:39.632Z,1.90
2023-08-13T09:20:10.911Z,1.83
2023-08-13T09:22:37.517Z,1.70
2023-08-13T09:25:04.271Z,1.47
2023-08-13T09:27:31.644Z,1.80
2023-08-13T09:30:04.242Z,1.98
2023-08-13T09:32:31.184Z,1.80
2023-08-13T09:34:58.775Z,1.90
2023-08-13T09:37:26.568Z,2.03
2023-08-13T09:39:53.301Z,2.17
2023-08-13T09:42:19.819Z,2.20
2023-08-13T09:44:46.389Z,2.33
2023-08-13T09:47:14.728Z,2.42
2023-08-13T09:49:41.434Z,2.85
2023-08-13T09:52:09.777Z,2.53
2023-08-13T09:57:11.599Z,2.00
2023-08-13T09:59:38.172Z,2.30
2023-08-13T10:02:08.760Z,2.38
2023-08-13T10:04:36.049Z,2.35
2023-08-13T10:07:02.602Z,2.45
2023-08-13T10:09:29.132Z,2.55
2023-08-13T10:11:55.649Z,2.67
2023-08-13T10:14:22.201Z,2.50
2023-08-13T10:16:48.783Z,2.20
2023-08-13T10:19:16.531Z,2.53
2023-08-13T10:21:43.900Z,2.63
2023-08-13T10:24:12.409Z,2.33
2023-08-13T10:26:43.000Z,2.40
2023-08-13T10:29:17.284Z,2.25
2023-08-13T10:32:01.439Z,2.40
2023-08-13T10:34:40.867Z,2.47
2023-08-13T10:37:20.700Z,2.70
2023-08-13T10:39:56.235Z,2.53
2023-08-13T10:42:29.088Z,2.75
2023-08-13T10:45:02.267Z,2.80
2023-08-13T10:47:57.407Z,2.40
2023-08-13T10:50:28.318Z,2.72
2023-08-13T10:53:05.535Z,2.50
2023-08-13T10:55:33.850Z,2.50
2023-08-13T10:58:00.378Z,2.55
2023-08-13T11:00:27.801Z,2.53
2023-08-13T11:02:57.878Z,2.40
2023-08-13T11:05:24.685Z,2.30
2023-08-13T11:07:52.075Z,2.30
2023-08-13T11:10:19.599Z,2.60
2023-08-13T11:12:47.256Z,2.70
2023-08-13T11:15:14.511Z,2.30
2023-08-13T11:17:42.586Z,2.60
2023-08-13T11:20:10.828Z,2.47
2023-08-13T11:22:37.332Z,2.60
2023-08-13T11:25:03.997Z,2.55
2023-08-13T11:27:30.679Z,2.20
2023-08-13T11:29:57.362Z,2.60
2023-08-13T11:32:24.439Z,2.53
2023-08-13T11:34:51.205Z,3.10
2023-08-13T11:37:18.115Z,2.70
2023-08-13T11:39:44.619Z,2.72
2023-08-13T11:42:11.991Z,2.50
2023-08-13T11:44:38.571Z,2.53
2023-08-13T11:47:05.711Z,2.60
2023-08-13T11:49:33.049Z,2.70
2023-08-13T11:51:59.747Z,2.60
2023-08-13T11:54:26.454Z,2.80
2023-08-13T11:56:53.216Z,2.45
2023-08-13T11:59:28.214Z,2.90
2023-08-13T12:01:55.835Z,2.92
2023-08-13T12:04:23.223Z,2.70
2023-08-13T12:06:51.995Z,3.13
2023-08-13T12:09:19.265Z,3.00
2023-08-13T12:11:45.833Z,2.85
2023-08-13T12:14:12.483Z,3.10
2023-08-13T12:16:39.102Z,2.58
2023-08-13T12:19:18.027Z,2.70
2023-08-13T12:24:10.948Z,2.33
2023-08-13T12:26:41.206Z,2.70
2023-08-13T12:29:27.776Z,2.50
2023-08-13T12:31:54.696Z,2.53
2023-08-13T12:34:21.288Z,2.50
2023-08-13T12:36:47.922Z,2.95
2023-08-13T12:39:14.530Z,2.90
2023-08-13T12:41:41.108Z,3.20
2023-08-13T12:44:08.582Z,3.03
2023-08-13T12:46:36.005Z,2.80
2023-08-13T12:51:55.787Z,2.50
2023-08-13T12:54:22.412Z,3.00
2023-08-13T12:56:48.978Z,2.45
2023-08-13T12:59:19.066Z,2.88
2023-08-13T13:01:45.877Z,2.60
2023-08-13T13:12:42.883Z,2.90
2023-08-13T13:15:09.990Z,2.72
2023-08-13T13:17:36.625Z,2.55
2023-08-13T13:20:11.529Z,2.58
2023-08-13T13:22:38.858Z,2.47
2023-08-13T13:25:05.763Z,2.75
2023-08-13T13:27:32.319Z,2.60
2023-08-13T13:29:58.873Z,2.80
2023-08-13T13:32:25.573Z,3.15
2023-08-13T13:34:55.740Z,2.92
2023-08-13T13:37:22.298Z,2.90
2023-08-13T13:39:48.796Z,3.05
2023-08-13T13:42:15.577Z,3.20
2023-08-13T13:44:42.399Z,3.20
2023-08-13T13:47:09.077Z,3.25
2023-08-13T13:49:35.573Z,3.03
2023-08-13T13:52:02.121Z,3.30
2023-08-13T14:40:27.807Z,2.38
2023-08-13T14:47:20.399Z,2.45
2023-08-13T14:49:49.527Z,2.10
2023-08-13T14:56:13.354Z,2.47
2023-08-13T15:28:37.382Z,2.50
2023-08-13T15:31:06.728Z,2.83
2023-08-13T15:33:33.325Z,2.60
2023-08-13T15:38:47.217Z,2.65
2023-08-13T15:41:14.026Z,2.63
2023-08-13T15:43:40.571Z,2.85
2023-08-13T15:46:07.130Z,2.83
2023-08-13T15:48:33.664Z,2.67
2023-08-13T15:51:00.302Z,2.90
2023-08-13T15:53:26.878Z,3.00
2023-08-13T15:56:03.445Z,3.03
2023-08-13T15:58:29.944Z,3.30
2023-08-13T16:00:56.435Z,3.40
2023-08-13T16:04:05.648Z,2.80
2023-08-13T16:06:56.010Z,3.20
2023-08-13T16:15:13.949Z,3.20
2023-08-13T16:17:41.441Z,3.47
2023-08-13T16:20:12.667Z,3.40
2023-08-13T16:22:40.706Z,3.47
2023-08-13T16:25:08.412Z,3.20
2023-08-13T16:33:11.107Z,3.15
2023-08-13T17:16:30.573Z,2.75
2023-08-13T17:19:38.284Z,2.85
2023-08-13T17:34:10.222Z,4.30
2023-08-13T17:39:40.385Z,4.43
2023-08-13T17:47:54.236Z,3.47
2023-08-13T17:56:39.484Z,3.42
2023-08-13T17:59:06.550Z,3.53
2023-08-13T18:01:33.096Z,3.20
2023-08-13T18:03:59.620Z,3.50
2023-08-13T18:06:26.134Z,3.20
2023-08-13T18:09:00.778Z,3.15
2023-08-13T18:13:58.238Z,2.92
2023-08-13T18:16:24.777Z,3.10
2023-08-13T18:18:51.290Z,3.40
2023-08-13T18:21:17.778Z,3.53
2023-08-13T18:23:44.285Z,3.40
2023-08-13T18:26:10.810Z,3.42
2023-08-13T18:28:37.311Z,3.70
2023-08-13T18:31:06.015Z,4.00
2023-08-13T18:33:32.555Z,4.10
2023-08-13T18:36:00.365Z,3.65
2023-08-13T18:38:26.891Z,3.50
2023-08-13T18:40:53.422Z,3.53
2023-08-13T18:43:19.906Z,3.58
2023-08-13T18:45:46.393Z,3.47
2023-08-13T18:48:12.872Z,3.50
2023-08-13T18:50:39.358Z,3.22
2023-08-13T18:53:05.849Z,3.78
2023-08-13T18:55:32.526Z,3.70
2023-08-13T18:57:59.074Z,3.33
2023-08-13T19:00:25.621Z,3.55
2023-08-13T19:02:52.202Z,3.20
2023-08-13T19:05:18.767Z,3.85
2023-08-13T19:07:45.281Z,3.70
2023-08-13T19:10:11.820Z,3.80
2023-08-13T19:12:38.364Z,3.50
2023-08-13T19:15:05.492Z,3.53
2023-08-13T19:17:32.047Z,3.70
2023-08-13T19:19:58.603Z,4.10
2023-08-13T19:22:25.162Z,3.78
2023-08-13T19:24:51.720Z,4.07
2023-08-13T19:27:18.200Z,3.92
2023-08-13T19:29:44.745Z,4.22
2023-08-13T19:32:11.245Z,3.92
2023-08-13T19:34:37.954Z,4.25
2023-08-13T19:37:04.567Z,4.50
2023-08-13T19:39:31.060Z,4.13
2023-08-13T19:41:57.605Z,4.55
2023-08-13T19:44:37.196Z,4.57
2023-08-13T19:47:05.132Z,4.45
2023-08-13T19:49:31.620Z,4.25
2023-08-13T19:51:58.835Z,4.45
2023-08-13T19:54:25.607Z,4.20
2023-08-13T19:56:52.129Z,4.10
2023-08-13T19:59:32.870Z,4.32
2023-08-13T20:05:18.702Z,4.20
2023-08-13T20:07:46.688Z,4.07
2023-08-13T20:10:20.178Z,4.07
2023-08-13T20:12:56.159Z,4.40
2023-08-13T20:15:41.289Z,4.00
2023-08-13T20:18:16.626Z,3.78
2023-08-13T20:21:15.032Z,4.10
2023-08-13T20:23:58.599Z,4.00
2023-08-13T20:26:49.678Z,4.32
2023-08-13T20:29:33.710Z,4.07
2023-08-13T20:32:04.207Z,4.55
2023-08-13T20:37:41.886Z,4.35
2023-08-13T20:43:11.037Z,4.13
2023-08-13T20:45:48.315Z,4.00
2023-08-13T20:54:01.144Z,3.88
2023-08-13T20:59:52.238Z,4.20
2023-08-13T21:02:27.982Z,3.92
2023-08-13T21:05:18.954Z,4.35
2023-08-13T21:08:13.167Z,3.97
2023-08-13T21:10:42.093Z,4.10
2023-08-13T21:13:11.786Z,4.25
2023-08-13T21:15:54.974Z,4.63
2023-08-13T21:18:28.142Z,4.15
2023-08-13T21:24:00.052Z,3.85
2023-08-13T21:30:02.853Z,3.45
2023-08-13T21:35:24.929Z,3.53
2023-08-13T21:37:51.451Z,4.18
2023-08-13T21:40:18.988Z,3.90
2023-08-13T21:42:45.551Z,4.53
2023-08-13T21:45:12.046Z,4.30
2023-08-13T21:47:38.600Z,4.75
2023-08-13T21:50:05.697Z,4.38
2023-08-13T21:52:32.218Z,4.30
2023-08-13T21:54:58.705Z,4.22
2023-08-13T21:57:25.190Z,3.88
2023-08-13T21:59:51.884Z,4.10
2023-08-13T22:02:18.635Z,4.10
2023-08-13T22:04:45.518Z,4.57
2023-08-13T22:07:12.071Z,4.55
2023-08-13T22:09:38.570Z,4.30
2023-08-13T22:12:05.252Z,4.38
2023-08-13T22:14:31.806Z,4.22
2023-08-13T22:16:58.324Z,3.97
2023-08-13T22:19:26.827Z,4.40
2023-08-13T22:21:53.337Z,4.07
2023-08-13T22:24:19.859Z,4.25
2023-08-13T22:26:46.383Z,4.10
2023-08-13T22:29:12.873Z,3.70
2023-08-13T22:31:39.405Z,4.03
2023-08-13T22:34:05.959Z,4.20
2023-08-13T22:36:32.501Z,3.90
2023-08-13T22:38:58.999Z,4.07
2023-08-13T22:41:26.573Z,3.70
2023-08-13T22:43:53.089Z,3.60
2023-08-13T22:46:19.691Z,3.58
2023-08-13T22:48:46.243Z,3.60
2023-08-13T22:51:12.854Z,3.55
2023-08-13T22:53:39.399Z,3.97
2023-08-13T22:56:05.903Z,4.20
2023-08-13T22:58:32.379Z,4.10
2023-08-13T23:00:59.026Z,3.90
2023-08-13T23:03:28.393Z,3.90
2023-08-13T23:05:55.493Z,3.90
2023-08-13T23:08:22.424Z,3.67
2023-08-13T23:10:48.922Z,3.97
2023-08-13T23:13:15.429Z,4.40
2023-08-13T23:15:41.926Z,4.32
2023-08-13T23:18:08.563Z,4.72
2023-08-13T23:20:35.204Z,4.18
2023-08-13T23:23:02.039Z,3.97
2023-08-13T23:25:29.516Z,4.20
2023-08-13T23:27:56.001Z,4.30
2023-08-13T23:30:22.502Z,3.80
2023-08-13T23:32:49.128Z,4.18
2023-08-13T23:35:15.645Z,4.03
2023-08-13T23:37:42.178Z,3.92
2023-08-13T23:40:09.088Z,4.25
2023-08-13T23:42:35.656Z,4.28
2023-08-13T23:45:02.182Z,4.18
2023-08-13T23:47:28.788Z,4.10
2023-08-13T23:49:55.314Z,4.20
2023-08-13T23:52:21.812Z,4.15
2023-08-13T23:54:48.313Z,4.35
2023-08-13T23:57:14.850Z,3.70
2023-08-13T23:59:41.343Z,3.55
